Athol, KS (66932)

6:21 AM CST on November 23, 2014 (GMT -0600)
Near 14th and K | Change Station
CLOSE
Current Station
Personal Weather Station
Location: Franklin, NE
Elevation: 1850 ft
Nearby Weather Stations

Elev 1850 ft 40.09 °N, 98.95 °W | Updated 14 seconds ago

Mostly Cloudy
Mostly Cloudy
47.5 °F
Feels Like 47 °F
N
3.1
Wind Variable Wind from South
Gusts 3.1 mph

Today
High -- | Low -- °F
--% Chance of Precip.
Yesterday
High -- | Low -- °F
Precip. -- in
7:29 AM 5:14 PM
New Moon, 1% visible
Pressure 29.50 in
Visibility 10.0 miles
Clouds Clear
Windchill 47 °F
Dew Point 42 °F
Humidity 83%
Rainfall 0.00 in
Snow Depth Not available.
UV 0 out of 12
Pollen .10 out of 12
Air Quality Not available.
Flu Activity Not available.
METAR KHDE 231215Z AUTO 35019G29KT 10SM CLR 07/01 A2950 RMK AO2 T00690014

More Conditions Fewer Conditions

Pressure 29.50 in
Visibility 10.0 miles
Clouds Clear
Windchill 47 °F
Dew Point 42 °F
Humidity 83%
Rainfall 0.00 in
Snow Depth Not available.
UV 0 out of 12
Pollen .10 out of 12
Air Quality Not available.
Flu Activity Not available.
METAR KHDE 231215Z AUTO 35019G29KT 10SM CLR 07/01 A2950 RMK AO2 T00690014

More Conditions Fewer Conditions

10-Day Weather Forecast

Almanac

Astronomy

Nov. 23, 2014 Rise Set
Actual Time
Civil Twilight
Nautical Twilight
Astronomical Twilight
Moon
Length of Visible Light
Length of Day
Tomorrow will be .
, % of the Moon is Illuminated

Today's Extremes

State Highs State Lows

Community

WunderPhotos

Upload Photos

1,773,050 photos uploaded!

WunderBlogs® & News

Nearby

Air Quality

  Air Quality AQ Index Pollutant
Not available.

Snow Depth

Station Depth Elevation

Earthquake Activity

City Distance Mag. Time & Date
Minimum magnitude displayed is 2.5.

Coastal Water Temperatures

Place Temperature

Nearby Weather Stations